Time;durP1;ratioP1;P1;durP2;ratioP2;P2;SDS_P1;SDS_P2;PMS_P1;PMS_P2;Temp;Humidity;BMP_temperature;BMP_pressure;BME280_temperature;BME280_humidity;BME280_pressure;Samples;Min_cycle;Max_cycle;Signal;HPM_P1;HPM_P2
2023/06/26 00:00:11;;;;;;;2.97;2.77;;;25.60;91.20;;;;;;5093104;28;20527;-85
2023/06/26 00:02:37;;;;;;;2.90;2.70;;;25.60;91.20;;;;;;5093267;28;20821;-85
2023/06/26 00:05:05;;;;;;;2.77;2.57;;;25.60;91.20;;;;;;5093268;28;20481;-85
2023/06/26 00:07:33;;;;;;;3.13;2.93;;;25.60;91.20;;;;;;5093264;28;20438;-85
2023/06/26 00:10:00;;;;;;;3.03;2.83;;;25.60;91.20;;;;;;5093273;28;20449;-84
2023/06/26 00:12:29;;;;;;;2.57;2.37;;;25.60;91.20;;;;;;5092791;28;20471;-85
2023/06/26 00:14:58;;;;;;;2.53;2.33;;;25.60;91.10;;;;;;5093146;28;20516;-85
2023/06/26 00:17:24;;;;;;;2.90;2.70;;;25.60;91.20;;;;;;5093304;28;20473;-84
2023/06/26 00:19:52;;;;;;;2.60;2.40;;;25.60;91.20;;;;;;5092978;28;20440;-85
2023/06/26 00:22:19;;;;;;;2.73;2.53;;;25.60;91.20;;;;;;5092997;28;20432;-84
2023/06/26 00:24:45;;;;;;;3.00;2.80;;;25.60;91.20;;;;;;5093045;28;20463;-85
2023/06/26 00:27:12;;;;;;;2.83;2.63;;;25.60;91.10;;;;;;5092981;28;20931;-86
2023/06/26 00:29:39;;;;;;;2.80;2.60;;;25.60;91.10;;;;;;5092988;28;20542;-85
2023/06/26 00:32:08;;;;;;;3.53;2.40;;;25.60;91.50;;;;;;5092823;28;20530;-85
2023/06/26 00:34:35;;;;;;;2.43;2.23;;;25.60;91.10;;;;;;5093070;28;20475;-85
2023/06/26 00:37:02;;;;;;;2.93;2.73;;;25.60;91.10;;;;;;5092874;28;20442;-85
2023/06/26 00:39:28;;;;;;;2.83;2.63;;;25.60;91.10;;;;;;5092980;28;20452;-85
2023/06/26 00:41:55;;;;;;;2.53;2.33;;;25.60;91.10;;;;;;5092557;28;20584;-84
2023/06/26 00:44:22;;;;;;;2.57;2.43;;;25.60;91.10;;;;;;5092818;28;20443;-84
2023/06/26 00:46:49;;;;;;;2.83;2.63;;;25.60;91.20;;;;;;5092740;28;20437;-84
2023/06/26 00:49:17;;;;;;;2.60;2.40;;;25.60;91.10;;;;;;5093463;28;20788;-84
2023/06/26 00:51:44;;;;;;;2.37;2.27;;;25.60;91.10;;;;;;5096725;28;20467;-84
2023/06/26 00:54:12;;;;;;;2.57;2.43;;;25.60;91.10;;;;;;5096605;28;21078;-85
2023/06/26 00:56:39;;;;;;;3.10;2.90;;;25.60;91.10;;;;;;5096668;28;20442;-84
2023/06/26 00:59:05;;;;;;;2.43;2.23;;;25.60;91.10;;;;;;5096193;28;20923;-84
2023/06/26 01:01:32;;;;;;;2.50;2.30;;;25.60;91.10;;;;;;5096504;28;20534;-85
2023/06/26 01:03:59;;;;;;;2.57;2.47;;;25.60;91.10;;;;;;5096503;28;20920;-85
2023/06/26 01:06:31;;;;;;;2.97;2.77;;;25.60;91.40;;;;;;5096638;28;20441;-85
2023/06/26 01:08:58;;;;;;;3.10;2.90;;;25.60;91.10;;;;;;5096412;28;20442;-85
2023/06/26 01:11:25;;;;;;;2.73;2.53;;;25.60;91.10;;;;;;5096291;28;20966;-85
2023/06/26 01:13:53;;;;;;;3.33;3.13;;;25.60;91.20;;;;;;5096126;28;20485;-85
2023/06/26 01:16:22;;;;;;;2.60;2.40;;;25.60;91.10;;;;;;5096304;28;20510;-85
2023/06/26 01:18:49;;;;;;;2.97;2.77;;;25.60;91.10;;;;;;5096156;28;20927;-85
2023/06/26 01:21:17;;;;;;;3.63;3.33;;;25.60;91.10;;;;;;5096190;28;20442;-85
2023/06/26 01:23:59;;;;;;;2.97;2.77;;;25.60;91.10;;;;;;5096091;28;20434;-85
2023/06/26 01:26:30;;;;;;;3.20;2.90;;;25.60;91.10;;;;;;5096056;28;20441;-85
2023/06/26 01:28:59;;;;;;;3.30;3.10;;;25.60;91.10;;;;;;5095983;28;20446;-85
2023/06/26 01:31:28;;;;;;;3.00;2.80;;;25.60;91.10;;;;;;5095935;28;20442;-85
2023/06/26 01:33:55;;;;;;;2.90;2.70;;;25.60;91.10;;;;;;5095917;28;20534;-84
2023/06/26 01:36:23;;;;;;;3.00;2.80;;;25.60;91.10;;;;;;5095897;28;21008;-84
2023/06/26 01:38:50;;;;;;;3.00;2.80;;;25.60;91.10;;;;;;5095818;28;20812;-85
2023/06/26 01:41:17;;;;;;;2.53;2.33;;;25.50;91.00;;;;;;5095851;28;20441;-84
2023/06/26 01:44:01;;;;;;;2.90;2.70;;;25.60;90.90;;;;;;5095696;28;20439;-84
2023/06/26 01:46:35;;;;;;;3.27;3.07;;;25.60;91.20;;;;;;5095904;28;21037;-84
2023/06/26 01:49:08;;;;;;;2.93;2.73;;;25.60;91.10;;;;;;5095721;28;20532;-85
2023/06/26 01:51:42;;;;;;;2.90;2.70;;;25.60;91.10;;;;;;5095501;28;20449;-84
2023/06/26 01:54:11;;;;;;;2.50;2.40;;;25.60;91.00;;;;;;5095493;28;21015;-84
2023/06/26 01:56:39;;;;;;;3.00;2.80;;;25.60;91.10;;;;;;5095629;28;20455;-84
2023/06/26 01:59:10;;;;;;;2.73;2.53;;;25.50;91.10;;;;;;5095408;28;20444;-84
2023/06/26 02:01:36;;;;;;;3.17;2.97;;;25.60;91.10;;;;;;5095256;28;20452;-84
2023/06/26 02:04:04;;;;;;;3.23;3.03;;;25.50;91.40;;;;;;5095201;28;20448;-84
2023/06/26 02:06:30;;;;;;;2.80;2.60;;;25.60;91.20;;;;;;5095237;28;20436;-85
2023/06/26 02:08:57;;;;;;;2.57;2.37;;;25.60;91.10;;;;;;5095503;28;20446;-84
2023/06/26 02:11:24;;;;;;;2.80;2.60;;;25.60;91.10;;;;;;5095341;28;20490;-84
2023/06/26 02:13:51;;;;;;;3.07;2.87;;;25.50;91.00;;;;;;5095173;28;20580;-84
2023/06/26 02:16:19;;;;;;;2.50;2.30;;;25.50;91.00;;;;;;5095195;28;20447;-84
2023/06/26 02:18:48;;;;;;;2.70;2.50;;;25.60;91.10;;;;;;5095099;28;20953;-85
2023/06/26 02:21:15;;;;;;;3.43;3.23;;;25.60;91.00;;;;;;5094873;28;20468;-85
2023/06/26 02:23:42;;;;;;;2.33;2.20;;;25.50;91.00;;;;;;5095001;28;20440;-85
2023/06/26 02:26:08;;;;;;;2.97;2.77;;;25.50;91.00;;;;;;5094812;28;20456;-85
2023/06/26 02:28:35;;;;;;;3.03;2.83;;;25.50;90.90;;;;;;5094942;28;20532;-84
2023/06/26 02:31:02;;;;;;;2.03;1.93;;;25.60;90.90;;;;;;5094809;28;20485;-85
2023/06/26 02:33:30;;;;;;;2.83;2.63;;;25.50;90.90;;;;;;5094790;28;20800;-85
2023/06/26 02:35:57;;;;;;;3.00;2.80;;;25.50;90.80;;;;;;5094757;28;20487;-85
2023/06/26 02:38:24;;;;;;;3.03;2.83;;;25.50;90.80;;;;;;5094584;28;20442;-84
2023/06/26 02:40:51;;;;;;;2.90;2.60;;;25.50;90.80;;;;;;5094602;28;20447;-85
2023/06/26 02:43:17;;;;;;;2.67;2.47;;;25.60;91.30;;;;;;5094746;28;20447;-84
2023/06/26 02:45:44;;;;;;;2.47;2.27;;;25.50;90.90;;;;;;5094523;28;20443;-84
2023/06/26 02:48:11;;;;;;;2.70;2.50;;;25.50;90.90;;;;;;5094398;28;20812;-84
2023/06/26 02:50:39;;;;;;;3.00;2.80;;;25.60;90.90;;;;;;5094608;28;20445;-84
2023/06/26 02:53:06;;;;;;;2.33;2.17;;;25.50;90.80;;;;;;5094508;28;20450;-86
2023/06/26 02:55:35;;;;;;;2.63;2.47;;;25.60;90.90;;;;;;5094291;28;20495;-85
2023/06/26 02:58:02;;;;;;;3.40;3.10;;;25.50;90.90;;;;;;5094212;28;20476;-84
2023/06/26 03:00:29;;;;;;;2.47;2.27;;;25.50;90.80;;;;;;5094193;28;20532;-85
2023/06/26 03:02:59;;;;;;;2.97;2.77;;;25.50;90.90;;;;;;5094444;28;20471;-85
2023/06/26 03:05:26;;;;;;;2.70;2.50;;;25.50;90.90;;;;;;5094162;28;20440;-85
2023/06/26 03:07:54;;;;;;;2.70;2.50;;;25.50;90.80;;;;;;5094178;28;20441;-86
2023/06/26 03:10:21;;;;;;;2.70;2.50;;;25.50;90.90;;;;;;5094004;28;20471;-85
2023/06/26 03:12:48;;;;;;;3.60;3.30;;;25.50;90.90;;;;;;5093242;28;20970;-85
2023/06/26 03:15:19;;;;;;;3.53;3.23;;;25.50;90.80;;;;;;5093825;28;20530;-85
2023/06/26 03:17:46;;;;;;;3.07;2.87;;;25.50;90.80;;;;;;5093845;28;20499;-84
2023/06/26 03:20:12;;;;;;;3.30;3.10;;;25.50;90.90;;;;;;5093815;28;20849;-85
2023/06/26 03:22:40;;;;;;;2.73;2.53;;;25.50;91.10;;;;;;5094055;28;20530;-85
2023/06/26 03:25:08;;;;;;;3.00;2.80;;;25.50;91.00;;;;;;5093666;28;20456;-84
2023/06/26 03:27:35;;;;;;;2.70;2.50;;;25.50;91.00;;;;;;5093895;28;20509;-84
2023/06/26 03:30:02;;;;;;;2.50;2.30;;;25.50;90.90;;;;;;5093641;28;20501;-84
2023/06/26 03:32:29;;;;;;;2.50;2.30;;;25.50;91.30;;;;;;5093796;28;20483;-85
2023/06/26 03:34:56;;;;;;;2.63;2.43;;;25.50;91.00;;;;;;5093647;28;20554;-85
2023/06/26 03:37:23;;;;;;;3.17;2.97;;;25.50;90.90;;;;;;5093765;28;20792;-85
2023/06/26 03:39:49;;;;;;;2.40;2.20;;;25.50;91.00;;;;;;5093512;28;20444;-85
2023/06/26 03:42:18;;;;;;;2.70;2.50;;;25.50;90.90;;;;;;5093586;28;20861;-84
2023/06/26 03:44:46;;;;;;;2.90;2.70;;;25.50;91.00;;;;;;5093417;28;21020;-84
2023/06/26 03:47:13;;;;;;;2.50;2.30;;;25.50;91.50;;;;;;5093487;28;20544;-84
2023/06/26 03:49:39;;;;;;;2.70;2.50;;;25.50;91.10;;;;;;5093514;28;20471;-84
2023/06/26 03:52:07;;;;;;;2.70;2.50;;;25.50;91.10;;;;;;5093482;28;20514;-84
2023/06/26 03:54:34;;;;;;;2.70;2.50;;;25.50;91.00;;;;;;5093257;28;20463;-85
2023/06/26 03:57:01;;;;;;;3.13;2.83;;;25.50;90.90;;;;;;5093304;28;20440;-85
2023/06/26 03:59:30;;;;;;;2.30;2.20;;;25.50;90.80;;;;;;5093267;28;20543;-86
2023/06/26 04:01:57;;;;;;;2.80;2.60;;;25.50;90.80;;;;;;5093398;28;20906;-84
2023/06/26 04:04:24;;;;;;;2.70;2.50;;;25.50;90.80;;;;;;5093151;28;20494;-85
2023/06/26 04:06:51;;;;;;;2.60;2.50;;;25.50;90.80;;;;;;5093305;28;20537;-85
2023/06/26 04:09:19;;;;;;;2.90;2.70;;;25.50;90.90;;;;;;5093122;28;20432;-84
2023/06/26 04:11:46;;;;;;;2.90;2.70;;;25.50;90.90;;;;;;5093210;28;20435;-84
2023/06/26 04:14:12;;;;;;;2.73;2.53;;;25.50;90.90;;;;;;5093049;28;20477;-84
2023/06/26 04:16:41;;;;;;;2.93;2.73;;;25.50;90.80;;;;;;5093171;28;20490;-85
2023/06/26 04:19:07;;;;;;;2.93;2.63;;;25.50;90.80;;;;;;5092893;28;20532;-84
2023/06/26 04:21:34;;;;;;;3.07;2.87;;;25.50;90.90;;;;;;5093036;28;20507;-84
2023/06/26 04:24:01;;;;;;;2.80;2.60;;;25.50;90.80;;;;;;5093547;28;20532;-84
2023/06/26 04:26:31;;;;;;;2.57;2.37;;;25.50;90.90;;;;;;5097292;28;20482;-85
2023/06/26 04:28:57;;;;;;;2.60;2.40;;;25.50;90.90;;;;;;5097298;28;20515;-85
2023/06/26 04:31:24;;;;;;;2.80;2.60;;;25.50;90.90;;;;;;5097111;28;20948;-85
2023/06/26 04:33:54;;;;;;;3.00;2.80;;;25.50;91.40;;;;;;5097084;28;20529;-85
2023/06/26 04:36:21;;;;;;;2.70;2.50;;;25.50;90.90;;;;;;5096854;28;20496;-85
2023/06/26 04:38:49;;;;;;;2.83;2.63;;;25.50;90.90;;;;;;5096963;28;20878;-84
2023/06/26 04:41:15;;;;;;;3.13;2.83;;;25.50;90.90;;;;;;5097076;28;20442;-84
2023/06/26 04:43:42;;;;;;;2.60;2.40;;;25.50;91.00;;;;;;5097004;28;20545;-85
2023/06/26 04:46:09;;;;;;;2.60;2.40;;;25.50;90.90;;;;;;5096944;28;20447;-85
2023/06/26 04:48:36;;;;;;;2.80;2.60;;;25.50;91.00;;;;;;5096827;28;20449;-84
2023/06/26 04:51:05;;;;;;;2.73;2.53;;;25.50;90.90;;;;;;5096806;28;20485;-84
2023/06/26 04:53:32;;;;;;;2.77;2.57;;;25.50;90.90;;;;;;5096607;28;20446;-84
2023/06/26 04:55:59;;;;;;;2.50;2.30;;;25.50;91.00;;;;;;5096666;28;20518;-85
2023/06/26 04:58:25;;;;;;;2.53;2.33;;;25.50;91.00;;;;;;5096545;28;20560;-85
2023/06/26 05:00:52;;;;;;;2.93;2.73;;;25.50;90.90;;;;;;5096460;28;20448;-84
2023/06/26 05:03:20;;;;;;;2.60;2.40;;;25.50;90.90;;;;;;5096602;28;20538;-84
2023/06/26 05:05:47;;;;;;;2.47;2.37;;;25.50;90.90;;;;;;5096427;28;20448;-84
2023/06/26 05:08:19;;;;;;;3.03;2.83;;;25.50;90.90;;;;;;5096467;28;20530;-85
2023/06/26 05:10:47;;;;;;;3.17;2.97;;;25.50;90.90;;;;;;5096385;28;20799;-86
2023/06/26 05:13:17;;;;;;;3.37;3.17;;;25.50;90.90;;;;;;5096280;28;20463;-86
2023/06/26 05:15:44;;;;;;;2.23;2.13;;;25.50;90.90;;;;;;5096452;28;20529;-84
2023/06/26 05:18:11;;;;;;;2.50;2.30;;;25.50;91.10;;;;;;5096080;28;20442;-84
2023/06/26 05:20:38;;;;;;;2.83;2.63;;;25.50;91.00;;;;;;5096213;28;20447;-84
2023/06/26 05:23:05;;;;;;;2.60;2.40;;;25.50;91.00;;;;;;5096220;28;20457;-84
2023/06/26 05:25:34;;;;;;;2.77;2.57;;;25.50;90.90;;;;;;5096124;28;20534;-85
2023/06/26 05:28:04;;;;;;;2.20;2.10;;;25.50;90.90;;;;;;5096086;28;20435;-84
2023/06/26 05:30:34;;;;;;;2.93;2.73;;;25.50;91.00;;;;;;5096082;28;20435;-85
2023/06/26 05:33:02;;;;;;;2.33;2.23;;;25.50;90.90;;;;;;5095970;28;20444;-86
2023/06/26 05:35:31;;;;;;;2.50;2.30;;;25.40;90.90;;;;;;5095281;28;20473;-86
2023/06/26 05:37:58;;;;;;;3.07;2.87;;;25.50;90.90;;;;;;5095809;28;20999;-85
2023/06/26 05:40:26;;;;;;;2.87;2.67;;;25.50;90.90;;;;;;5095828;28;20771;-85
2023/06/26 05:42:55;;;;;;;2.77;2.57;;;25.50;90.90;;;;;;5095775;28;20524;-85
2023/06/26 05:45:21;;;;;;;2.93;2.73;;;25.50;91.00;;;;;;5095754;28;20443;-86
2023/06/26 05:47:49;;;;;;;2.53;2.33;;;25.50;90.90;;;;;;5095845;28;20535;-86
2023/06/26 05:50:19;;;;;;;2.67;2.47;;;25.50;91.00;;;;;;5095623;28;20995;-86
2023/06/26 05:52:46;;;;;;;2.67;2.47;;;25.50;91.00;;;;;;5095667;28;20449;-84
2023/06/26 05:55:14;;;;;;;2.90;2.70;;;25.50;90.90;;;;;;5095376;28;20491;-85
2023/06/26 05:57:42;;;;;;;2.67;2.47;;;25.50;90.90;;;;;;5095422;28;20444;-84
2023/06/26 06:00:14;;;;;;;3.10;2.90;;;25.50;90.80;;;;;;5095323;28;20590;-84
2023/06/26 06:02:42;;;;;;;2.90;2.70;;;25.50;91.30;;;;;;5095489;28;20445;-84
2023/06/26 06:05:09;;;;;;;2.80;2.60;;;25.50;90.90;;;;;;5095308;28;20439;-84
2023/06/26 06:07:37;;;;;;;3.00;2.80;;;25.50;90.90;;;;;;5095365;28;20449;-84
2023/06/26 06:10:05;;;;;;;3.13;2.93;;;25.50;90.80;;;;;;5095402;28;20473;-85
2023/06/26 06:12:32;;;;;;;2.80;2.60;;;25.50;90.80;;;;;;5095001;28;20473;-85
2023/06/26 06:14:59;;;;;;;2.30;2.20;;;25.50;90.90;;;;;;5095213;28;20474;-84
2023/06/26 06:17:27;;;;;;;2.67;2.47;;;25.50;90.90;;;;;;5095136;28;20571;-84
2023/06/26 06:19:54;;;;;;;2.50;2.30;;;25.50;90.90;;;;;;5095055;28;20444;-85
2023/06/26 06:22:21;;;;;;;2.60;2.40;;;25.50;90.90;;;;;;5094884;28;20441;-84
2023/06/26 06:24:49;;;;;;;2.90;2.70;;;25.50;90.90;;;;;;5095045;28;20488;-84
2023/06/26 06:27:16;;;;;;;2.67;2.47;;;25.50;91.00;;;;;;5094843;28;20531;-83
2023/06/26 06:29:43;;;;;;;2.80;2.60;;;25.50;91.00;;;;;;5094785;28;20788;-84
2023/06/26 06:32:10;;;;;;;2.57;2.37;;;25.50;91.00;;;;;;5094819;28;20795;-85
2023/06/26 06:34:38;;;;;;;2.87;2.67;;;25.50;91.00;;;;;;5094912;28;20441;-85
2023/06/26 06:37:05;;;;;;;2.73;2.53;;;25.50;91.10;;;;;;5094741;28;20484;-86
2023/06/26 06:39:32;;;;;;;2.53;2.33;;;25.50;91.00;;;;;;5094917;28;20440;-85
2023/06/26 06:41:58;;;;;;;2.77;2.57;;;25.50;91.30;;;;;;5094990;28;20441;-86
2023/06/26 06:44:25;;;;;;;2.97;2.77;;;25.50;90.90;;;;;;5094655;28;20797;-84
2023/06/26 06:46:52;;;;;;;2.33;2.13;;;25.50;90.90;;;;;;5093826;28;21017;-85
2023/06/26 06:49:19;;;;;;;2.67;2.47;;;25.50;90.90;;;;;;5094697;28;20528;-85
2023/06/26 06:51:47;;;;;;;3.10;2.90;;;25.50;90.90;;;;;;5094643;28;20539;-85
2023/06/26 06:54:17;;;;;;;2.47;2.27;;;25.50;90.90;;;;;;5094318;28;20465;-84
2023/06/26 06:56:44;;;;;;;2.80;2.60;;;25.50;90.90;;;;;;5094145;28;20577;-84
2023/06/26 06:59:10;;;;;;;3.03;2.83;;;25.50;90.90;;;;;;5094192;28;20448;-84
2023/06/26 07:01:37;;;;;;;2.17;1.97;;;25.50;90.90;;;;;;5094227;28;20446;-84
2023/06/26 07:04:05;;;;;;;2.33;2.23;;;25.50;90.90;;;;;;5094240;28;20446;-85
2023/06/26 07:06:31;;;;;;;2.10;2.00;;;25.50;90.80;;;;;;5094271;28;20476;-84
2023/06/26 07:09:00;;;;;;;2.60;2.40;;;25.50;91.10;;;;;;5094131;28;20936;-86
2023/06/26 07:11:26;;;;;;;2.90;2.70;;;25.50;91.00;;;;;;5094021;28;20852;-84
2023/06/26 07:13:53;;;;;;;2.37;2.17;;;25.50;91.40;;;;;;5093964;28;20476;-84
2023/06/26 07:16:20;;;;;;;2.80;2.60;;;25.50;90.90;;;;;;5094016;28;20570;-84
2023/06/26 07:18:47;;;;;;;2.87;2.67;;;25.50;90.90;;;;;;5093889;28;20437;-85
2023/06/26 07:21:16;;;;;;;2.50;2.30;;;25.50;90.90;;;;;;5093917;28;20437;-83
2023/06/26 07:23:43;;;;;;;2.37;2.17;;;25.50;91.00;;;;;;5093908;28;20450;-84
2023/06/26 07:26:11;;;;;;;2.70;2.50;;;25.50;91.30;;;;;;5093790;28;20467;-83
2023/06/26 07:28:38;;;;;;;3.27;3.07;;;25.50;90.90;;;;;;5093747;28;20435;-84
2023/06/26 07:31:06;;;;;;;2.40;2.20;;;25.50;90.90;;;;;;5093886;28;20531;-83
2023/06/26 07:33:33;;;;;;;2.80;2.60;;;25.50;90.90;;;;;;5093690;28;20521;-84
2023/06/26 07:36:00;;;;;;;2.20;2.00;;;25.50;90.90;;;;;;5093511;28;20514;-83
2023/06/26 07:38:26;;;;;;;2.43;2.33;;;25.50;90.90;;;;;;5093429;28;20523;-83
2023/06/26 07:40:53;;;;;;;2.07;1.97;;;25.50;91.00;;;;;;5093634;28;20446;-84
2023/06/26 07:43:22;;;;;;;2.57;2.37;;;25.50;91.00;;;;;;5093741;28;20449;-84
2023/06/26 07:45:53;;;;;;;2.47;2.27;;;25.50;90.90;;;;;;5093518;28;20486;-84
2023/06/26 07:48:20;;;;;;;2.27;2.07;;;25.50;90.90;;;;;;5093597;28;20471;-84
2023/06/26 07:50:46;;;;;;;2.67;2.47;;;25.50;91.20;;;;;;5093347;28;20515;-84
2023/06/26 07:53:13;;;;;;;3.00;2.77;;;25.50;90.80;;;;;;5093513;28;20795;-84
2023/06/26 07:55:40;;;;;;;2.40;2.20;;;25.50;90.90;;;;;;5093192;28;20490;-84
2023/06/26 07:58:08;;;;;;;2.83;2.63;;;25.50;90.90;;;;;;5093101;28;20526;-84
2023/06/26 08:00:36;;;;;;;2.70;2.50;;;25.50;90.90;;;;;;5093189;28;20522;-85
2023/06/26 08:03:03;;;;;;;2.40;2.20;;;25.50;90.90;;;;;;5093361;28;20432;-84
2023/06/26 08:05:30;;;;;;;2.47;2.27;;;25.50;90.90;;;;;;5093308;28;20432;-84
2023/06/26 08:07:57;;;;;;;2.60;2.40;;;25.50;90.90;;;;;;5093130;28;20475;-85
2023/06/26 08:10:24;;;;;;;3.13;2.93;;;25.50;90.90;;;;;;5093352;28;20525;-85
2023/06/26 08:12:52;;;;;;;2.63;2.43;;;25.50;90.90;;;;;;5093102;28;20755;-85
2023/06/26 08:15:19;;;;;;;2.67;2.47;;;25.50;90.90;;;;;;5093202;28;20482;-84
2023/06/26 08:17:47;;;;;;;2.27;2.10;;;25.50;90.90;;;;;;5093626;28;21042;-85
2023/06/26 08:20:14;;;;;;;2.53;2.33;;;25.50;90.90;;;;;;5093212;28;20867;-84
2023/06/26 08:22:41;;;;;;;2.30;2.20;;;25.50;90.80;;;;;;5093157;28;20450;-84
2023/06/26 08:25:08;;;;;;;2.57;2.37;;;25.50;90.80;;;;;;5093138;28;20554;-84
2023/06/26 08:27:35;;;;;;;2.60;2.40;;;25.50;90.80;;;;;;5093106;28;20445;-85
2023/06/26 08:30:02;;;;;;;2.30;2.13;;;25.50;90.80;;;;;;5093086;28;20473;-84
2023/06/26 08:32:29;;;;;;;2.80;2.60;;;25.50;90.70;;;;;;5093138;28;20470;-84
2023/06/26 08:34:57;;;;;;;2.93;2.73;;;25.50;90.80;;;;;;5093139;28;20512;-84
2023/06/26 08:37:24;;;;;;;2.50;2.30;;;25.50;90.80;;;;;;5093335;28;20488;-84
2023/06/26 08:39:51;;;;;;;2.43;2.23;;;25.50;90.80;;;;;;5093054;28;20439;-84
2023/06/26 08:42:18;;;;;;;2.43;2.23;;;25.50;90.80;;;;;;5092886;28;20448;-84
2023/06/26 08:44:45;;;;;;;2.83;2.63;;;25.50;90.80;;;;;;5092914;28;20443;-84
2023/06/26 08:47:13;;;;;;;3.13;2.83;;;25.50;90.80;;;;;;5092938;28;21010;-84
2023/06/26 08:49:47;;;;;;;2.57;2.37;;;25.50;90.80;;;;;;5092990;28;20437;-85
2023/06/26 08:52:20;;;;;;;2.70;2.50;;;25.50;90.80;;;;;;5093020;28;20452;-84
2023/06/26 08:54:56;;;;;;;2.70;2.50;;;25.50;90.80;;;;;;5092849;28;20464;-84
2023/06/26 08:57:24;;;;;;;2.90;2.70;;;25.50;90.80;;;;;;5092905;28;20487;-84
2023/06/26 08:59:52;;;;;;;2.73;2.53;;;25.50;90.80;;;;;;5092961;28;20450;-84
2023/06/26 09:02:20;;;;;;;2.50;2.30;;;25.50;90.80;;;;;;5092860;28;20438;-84
2023/06/26 09:04:48;;;;;;;2.30;2.20;;;25.50;90.80;;;;;;5092761;28;20460;-85
